Time;durP1;ratioP1;P1;durP2;ratioP2;P2;SDS_P1;SDS_P2;PMS_P1;PMS_P2;Temp;Humidity;BMP_temperature;BMP_pressure;BME280_temperature;BME280_humidity;BME280_pressure;Samples;Min_cycle;Max_cycle;Signal;HPM_P1;HPM_P2
2023/08/02 00:02:05;;;;;;;3.03;1.73;;;15.20;99.90;;;;;;5052590;28;20193;-82
2023/08/02 00:04:31;;;;;;;5.00;1.77;;;15.20;99.90;;;;;;5034708;28;20180;-82
2023/08/02 00:06:56;;;;;;;2.50;1.53;;;15.20;99.90;;;;;;5034362;28;20258;-81
2023/08/02 00:09:22;;;;;;;2.63;1.80;;;15.20;99.90;;;;;;5052920;28;20177;-82
2023/08/02 00:11:50;;;;;;;6.47;2.20;;;15.20;99.90;;;;;;5034388;28;20232;-82
2023/08/02 00:14:16;;;;;;;4.00;2.20;;;15.20;99.90;;;;;;5052581;28;20252;-82
2023/08/02 00:16:42;;;;;;;4.03;1.90;;;15.20;99.90;;;;;;5034321;28;20284;-82
2023/08/02 00:19:08;;;;;;;3.73;2.20;;;15.20;99.90;;;;;;5051900;28;20181;-82
2023/08/02 00:21:33;;;;;;;2.73;1.83;;;15.20;99.90;;;;;;5033988;28;20209;-82
2023/08/02 00:23:59;;;;;;;2.67;1.90;;;15.30;99.90;;;;;;5052215;28;20166;-82
2023/08/02 00:26:25;;;;;;;2.40;1.70;;;15.20;99.90;;;;;;5034403;28;20675;-82
2023/08/02 00:28:50;;;;;;;4.80;2.17;;;15.20;99.90;;;;;;5034426;28;20572;-82
2023/08/02 00:31:16;;;;;;;6.83;2.33;;;15.20;99.90;;;;;;5051857;28;20219;-82
2023/08/02 00:33:41;;;;;;;4.37;2.20;;;15.20;99.90;;;;;;5034365;28;20219;-81
2023/08/02 00:36:08;;;;;;;3.50;2.07;;;15.20;99.90;;;;;;5034281;28;20209;-82
2023/08/02 00:38:33;;;;;;;2.57;1.97;;;15.20;99.90;;;;;;5052453;28;20178;-82
2023/08/02 00:41:06;;;;;;;4.23;2.30;;;15.20;99.90;;;;;;5034031;28;20178;-82
2023/08/02 00:43:42;;;;;;;4.67;2.10;;;15.10;99.90;;;;;;5034025;28;20181;-82
2023/08/02 00:46:09;;;;;;;6.13;2.10;;;15.10;99.90;;;;;;5034036;28;20251;-82
2023/08/02 00:48:35;;;;;;;5.40;2.17;;;15.10;99.90;;;;;;5051963;28;20212;-82
2023/08/02 00:51:02;;;;;;;5.00;2.60;;;15.20;99.90;;;;;;5034214;28;20177;-82
2023/08/02 00:53:28;;;;;;;4.20;2.47;;;15.20;99.90;;;;;;5051884;28;20204;-82
2023/08/02 00:55:55;;;;;;;3.67;2.40;;;15.20;99.90;;;;;;5034033;28;20229;-81
2023/08/02 00:58:21;;;;;;;3.60;2.50;;;15.20;99.90;;;;;;5034337;28;20177;-82
2023/08/02 01:00:46;;;;;;;3.50;2.47;;;15.10;99.90;;;;;;5051933;28;20182;-82
2023/08/02 01:03:12;;;;;;;4.93;2.63;;;15.10;99.90;;;;;;5052382;28;20224;-82
2023/08/02 01:05:46;;;;;;;4.33;2.40;;;15.10;99.90;;;;;;5034355;28;20194;-81
2023/08/02 01:08:19;;;;;;;5.27;2.67;;;15.00;99.90;;;;;;5034227;28;20184;-82
2023/08/02 01:10:47;;;;;;;4.33;2.70;;;15.00;99.90;;;;;;5051979;28;20178;-81
2023/08/02 01:13:15;;;;;;;3.57;2.50;;;15.00;99.90;;;;;;5054749;28;20217;-82
2023/08/02 01:15:41;;;;;;;5.67;2.87;;;15.00;99.90;;;;;;5055397;28;20194;-82
2023/08/02 01:18:07;;;;;;;4.37;2.60;;;15.00;99.90;;;;;;5037489;28;20177;-82
2023/08/02 01:20:33;;;;;;;6.00;2.40;;;14.90;99.90;;;;;;5055178;28;20177;-81
2023/08/02 01:22:58;;;;;;;3.00;2.50;;;14.90;99.90;;;;;;5055250;28;20198;-81
2023/08/02 01:25:26;;;;;;;4.17;2.60;;;14.90;99.90;;;;;;5037468;28;20296;-82
2023/08/02 01:27:57;;;;;;;3.80;2.73;;;14.90;99.90;;;;;;5037556;28;20249;-82
2023/08/02 01:30:25;;;;;;;4.63;2.70;;;14.90;99.90;;;;;;5055278;28;20204;-82
2023/08/02 01:32:51;;;;;;;4.63;2.60;;;14.90;99.90;;;;;;5055101;28;20173;-82
2023/08/02 01:35:17;;;;;;;5.50;2.97;;;14.90;99.90;;;;;;5055298;28;20239;-81
2023/08/02 01:37:43;;;;;;;3.57;2.60;;;14.90;99.90;;;;;;5037213;28;20182;-81
2023/08/02 01:40:10;;;;;;;4.80;2.63;;;14.90;99.90;;;;;;5055126;28;20281;-82
2023/08/02 01:42:36;;;;;;;3.37;2.80;;;14.90;99.90;;;;;;5037078;28;20201;-82
2023/08/02 01:45:02;;;;;;;5.57;2.93;;;14.90;99.90;;;;;;5036934;28;20197;-82
2023/08/02 01:47:27;;;;;;;5.07;2.63;;;14.90;99.90;;;;;;5036950;28;20177;-82
2023/08/02 01:49:53;;;;;;;4.13;2.73;;;14.90;99.90;;;;;;5054816;28;20181;-82
2023/08/02 01:52:18;;;;;;;5.23;2.77;;;14.90;99.90;;;;;;5036730;28;20169;-82
2023/08/02 01:54:44;;;;;;;6.37;2.80;;;14.90;99.90;;;;;;5036929;28;20184;-81
2023/08/02 01:57:10;;;;;;;5.23;2.93;;;15.00;99.90;;;;;;5037070;28;20254;-82
2023/08/02 01:59:35;;;;;;;8.20;2.90;;;14.90;99.90;;;;;;5054546;28;20177;-78
2023/08/02 02:02:01;;;;;;;4.93;2.73;;;15.00;99.90;;;;;;5036728;28;20198;-82
2023/08/02 02:04:26;;;;;;;4.77;2.90;;;14.90;99.90;;;;;;5054684;28;20178;-82
2023/08/02 02:06:52;;;;;;;5.87;3.10;;;14.90;99.90;;;;;;5054501;28;20234;-82
2023/08/02 02:09:18;;;;;;;3.87;2.90;;;14.90;99.90;;;;;;5036408;28;20185;-82
2023/08/02 02:11:44;;;;;;;5.57;2.97;;;14.90;99.90;;;;;;5054476;28;20178;-82
2023/08/02 02:14:09;;;;;;;5.10;2.97;;;14.90;99.90;;;;;;5036591;28;20173;-82
2023/08/02 02:16:35;;;;;;;5.03;2.73;;;14.90;99.90;;;;;;5054322;28;20204;-81
2023/08/02 02:19:01;;;;;;;4.03;2.90;;;14.90;99.90;;;;;;5036664;28;20265;-82
2023/08/02 02:21:27;;;;;;;5.20;2.90;;;14.90;99.90;;;;;;5054132;28;20728;-81
2023/08/02 02:23:52;;;;;;;3.97;2.90;;;14.90;99.90;;;;;;5053125;28;20173;-82
2023/08/02 02:26:18;;;;;;;5.60;2.97;;;14.80;99.90;;;;;;5036252;28;20284;-81
2023/08/02 02:28:43;;;;;;;4.27;2.90;;;14.90;99.90;;;;;;5054309;28;20177;-82
2023/08/02 02:31:09;;;;;;;3.13;2.60;;;14.90;99.90;;;;;;5053834;28;20714;-82
2023/08/02 02:33:34;;;;;;;3.60;2.80;;;14.90;99.90;;;;;;5036228;28;20182;-81
2023/08/02 02:36:00;;;;;;;3.77;2.53;;;15.00;99.90;;;;;;5053738;28;20280;-82
2023/08/02 02:38:25;;;;;;;5.87;3.13;;;14.90;99.90;;;;;;5036354;28;20177;-83
2023/08/02 02:40:51;;;;;;;4.27;2.80;;;14.90;99.90;;;;;;5036003;28;20170;-81
2023/08/02 02:43:16;;;;;;;4.33;2.57;;;14.90;99.90;;;;;;5036301;28;20174;-81
2023/08/02 02:45:42;;;;;;;4.73;3.00;;;14.90;99.90;;;;;;5053985;28;20198;-82
2023/08/02 02:48:08;;;;;;;5.10;3.10;;;14.90;99.90;;;;;;5053763;28;20264;-81
2023/08/02 02:50:33;;;;;;;5.00;2.80;;;15.00;99.90;;;;;;5035658;28;20166;-82
2023/08/02 02:52:59;;;;;;;5.20;2.67;;;15.00;99.90;;;;;;5036073;28;20177;-81
2023/08/02 02:55:24;;;;;;;3.67;2.60;;;14.90;99.90;;;;;;5054226;28;20204;-81
2023/08/02 02:57:50;;;;;;;4.30;2.60;;;15.00;99.90;;;;;;5036107;28;20173;-81
2023/08/02 03:00:16;;;;;;;4.70;2.47;;;14.90;99.90;;;;;;5035731;28;20176;-81
2023/08/02 03:02:42;;;;;;;4.50;2.50;;;14.90;99.90;;;;;;5053495;28;20201;-81
2023/08/02 03:05:08;;;;;;;4.30;2.80;;;14.90;99.90;;;;;;5053482;28;20185;-82
2023/08/02 03:07:33;;;;;;;4.37;2.70;;;14.90;99.90;;;;;;5053906;28;20174;-81
2023/08/02 03:09:59;;;;;;;4.20;2.70;;;14.90;99.90;;;;;;5035552;28;20176;-82
2023/08/02 03:12:24;;;;;;;2.73;2.43;;;14.90;99.90;;;;;;5053450;28;20177;-81
2023/08/02 03:14:50;;;;;;;5.30;2.60;;;14.90;99.90;;;;;;5053258;28;20174;-81
2023/08/02 03:17:15;;;;;;;3.93;2.47;;;14.90;99.90;;;;;;5035217;28;20272;-82
2023/08/02 03:19:41;;;;;;;4.20;3.17;;;14.90;99.90;;;;;;5035043;28;20224;-82
2023/08/02 03:22:07;;;;;;;3.03;2.47;;;14.90;99.90;;;;;;5035721;28;20249;-81
2023/08/02 03:24:32;;;;;;;5.13;2.70;;;14.90;99.90;;;;;;5053196;28;20170;-82
2023/08/02 03:26:58;;;;;;;3.53;2.40;;;14.90;99.90;;;;;;5052970;28;20194;-81
2023/08/02 03:29:24;;;;;;;4.20;2.57;;;14.80;99.90;;;;;;5053059;28;20166;-81
2023/08/02 03:31:50;;;;;;;4.50;2.43;;;14.80;99.90;;;;;;5052930;28;20655;-82
2023/08/02 03:34:15;;;;;;;3.60;2.30;;;14.90;99.90;;;;;;5035073;28;20205;-82
2023/08/02 03:36:44;;;;;;;4.10;2.50;;;14.90;99.90;;;;;;5034812;28;20205;-81
2023/08/02 03:39:10;;;;;;;4.60;2.53;;;14.80;99.90;;;;;;5034768;28;20181;-81
2023/08/02 03:41:36;;;;;;;3.60;2.40;;;14.80;99.90;;;;;;5034963;28;20640;-81
2023/08/02 03:44:02;;;;;;;3.77;2.60;;;14.80;99.90;;;;;;5052732;28;20549;-81
2023/08/02 03:46:28;;;;;;;5.67;2.40;;;14.70;99.90;;;;;;5052787;28;20189;-82
2023/08/02 03:48:53;;;;;;;4.10;2.57;;;14.70;99.90;;;;;;5035323;28;20178;-82
2023/08/02 03:51:19;;;;;;;4.27;2.33;;;14.80;99.90;;;;;;5034957;28;20612;-82
2023/08/02 03:53:45;;;;;;;3.93;2.23;;;14.80;99.90;;;;;;5052859;28;20208;-81
2023/08/02 03:56:10;;;;;;;5.53;2.97;;;14.80;99.90;;;;;;5034807;28;20190;-82
2023/08/02 03:58:36;;;;;;;4.10;2.17;;;14.80;99.90;;;;;;5052518;28;20200;-81
2023/08/02 04:01:01;;;;;;;3.80;2.87;;;14.70;99.90;;;;;;5034485;28;20173;-81
2023/08/02 04:03:27;;;;;;;3.23;2.47;;;14.80;99.90;;;;;;5052997;28;20508;-82
2023/08/02 04:05:52;;;;;;;4.37;2.53;;;14.80;99.90;;;;;;5052402;28;20259;-81
2023/08/02 04:08:18;;;;;;;3.93;2.67;;;14.80;99.90;;;;;;5034945;28;20169;-81
2023/08/02 04:10:43;;;;;;;5.23;2.90;;;14.80;99.90;;;;;;5034254;28;20173;-81
2023/08/02 04:13:09;;;;;;;3.53;2.67;;;14.80;99.90;;;;;;5034562;28;20174;-81
2023/08/02 04:15:35;;;;;;;6.07;2.73;;;14.80;99.90;;;;;;5034905;28;20220;-82
2023/08/02 04:18:02;;;;;;;5.43;2.87;;;14.80;99.90;;;;;;5052406;28;20170;-81
2023/08/02 04:20:28;;;;;;;4.80;3.20;;;14.80;99.90;;;;;;5052465;28;20165;-81
2023/08/02 04:22:53;;;;;;;5.07;2.70;;;14.80;99.90;;;;;;5052464;28;20220;-82
2023/08/02 04:25:19;;;;;;;3.77;2.40;;;14.80;99.90;;;;;;5052582;28;20190;-82
2023/08/02 04:27:44;;;;;;;3.50;2.40;;;14.90;99.90;;;;;;5034803;28;20212;-81
2023/08/02 04:30:11;;;;;;;4.73;2.50;;;14.90;99.90;;;;;;5034334;28;20243;-81
2023/08/02 04:32:36;;;;;;;3.00;2.50;;;15.00;99.90;;;;;;5034419;28;20591;-82
2023/08/02 04:37:33;;;;;;;3.83;2.33;;;15.00;99.90;;;;;;5078838;23;20225;-79
2023/08/02 04:39:59;;;;;;;5.33;2.77;;;15.10;99.90;;;;;;5040442;28;20235;-79
2023/08/02 04:42:26;;;;;;;3.43;2.47;;;15.10;99.90;;;;;;5039670;28;20205;-80
2023/08/02 04:44:51;;;;;;;5.17;2.50;;;15.10;99.90;;;;;;5057478;28;20173;-79
2023/08/02 04:47:17;;;;;;;4.67;2.60;;;15.10;99.90;;;;;;5058925;28;20185;-79
2023/08/02 04:49:42;;;;;;;3.37;2.47;;;15.10;99.90;;;;;;5061378;28;20653;-79
2023/08/02 04:52:08;;;;;;;4.13;2.63;;;15.10;99.90;;;;;;5043440;28;20256;-79
2023/08/02 04:54:34;;;;;;;3.33;2.40;;;15.20;99.90;;;;;;5043671;28;20231;-79
2023/08/02 04:56:59;;;;;;;7.10;2.40;;;15.30;99.90;;;;;;5043074;28;20224;-80
2023/08/02 04:59:25;;;;;;;4.20;2.33;;;15.20;99.90;;;;;;5061317;28;20181;-79
2023/08/02 05:01:50;;;;;;;4.20;2.43;;;15.30;99.90;;;;;;5043341;28;20204;-79
2023/08/02 05:04:16;;;;;;;3.80;2.70;;;15.30;99.90;;;;;;5043657;28;20191;-79
2023/08/02 05:06:42;;;;;;;3.20;2.37;;;15.20;99.90;;;;;;5043106;28;20201;-81
2023/08/02 05:09:08;;;;;;;4.53;2.37;;;15.30;99.90;;;;;;5043674;28;20172;-79
2023/08/02 05:11:34;;;;;;;5.33;2.73;;;15.30;99.90;;;;;;5056991;28;20260;-83
2023/08/02 05:14:00;;;;;;;4.27;2.57;;;15.30;99.90;;;;;;5038950;28;20264;-83
2023/08/02 05:16:26;;;;;;;5.30;2.53;;;15.30;99.90;;;;;;5039063;28;20240;-83
2023/08/02 05:18:52;;;;;;;5.30;2.63;;;15.30;99.90;;;;;;5056806;28;20178;-83
2023/08/02 05:21:19;;;;;;;4.70;2.33;;;15.30;99.90;;;;;;5038760;28;20216;-83
2023/08/02 05:23:45;;;;;;;8.40;3.70;;;15.30;99.90;;;;;;5039510;28;20178;-83
2023/08/02 05:26:10;;;;;;;5.83;2.50;;;15.40;99.90;;;;;;5038841;28;20266;-84
2023/08/02 05:28:37;;;;;;;4.43;2.70;;;15.40;99.90;;;;;;5057386;28;20169;-82
2023/08/02 05:31:02;;;;;;;5.40;2.80;;;15.40;99.90;;;;;;5038481;28;20182;-82
2023/08/02 05:33:29;;;;;;;4.40;2.67;;;15.40;99.90;;;;;;5057196;28;20302;-82
2023/08/02 05:35:54;;;;;;;4.63;2.50;;;15.50;99.90;;;;;;5038270;28;20213;-82
2023/08/02 05:38:20;;;;;;;6.13;2.97;;;15.50;99.90;;;;;;5038467;28;20241;-83
2023/08/02 05:40:46;;;;;;;4.07;2.37;;;15.50;99.90;;;;;;5038523;28;20202;-82
2023/08/02 05:43:11;;;;;;;2.93;2.30;;;15.60;99.90;;;;;;5038843;28;20221;-82
2023/08/02 05:45:37;;;;;;;4.13;2.63;;;15.60;99.90;;;;;;5056319;28;20194;-82
2023/08/02 05:48:03;;;;;;;4.43;2.70;;;15.60;99.90;;;;;;5038560;28;20174;-82
2023/08/02 05:50:29;;;;;;;2.67;2.17;;;15.60;99.90;;;;;;5039129;28;20257;-82
2023/08/02 05:52:55;;;;;;;5.20;2.50;;;15.60;99.90;;;;;;5056320;28;20180;-82
2023/08/02 05:55:21;;;;;;;4.57;2.30;;;15.60;99.90;;;;;;5056092;28;20173;-82
2023/08/02 05:57:48;;;;;;;3.80;2.77;;;15.60;99.90;;;;;;5038187;28;20178;-82
2023/08/02 06:00:14;;;;;;;4.23;2.40;;;15.60;99.90;;;;;;5037958;28;20280;-82
2023/08/02 06:02:40;;;;;;;4.13;2.47;;;15.60;99.90;;;;;;5056612;28;20189;-83
2023/08/02 06:05:06;;;;;;;5.00;2.60;;;15.60;99.90;;;;;;5056250;28;20192;-83
2023/08/02 06:07:31;;;;;;;3.83;2.50;;;15.60;99.90;;;;;;5038672;28;20186;-82
2023/08/02 06:09:57;;;;;;;3.30;2.30;;;15.70;99.90;;;;;;5037831;28;20166;-82
2023/08/02 06:12:23;;;;;;;5.43;2.47;;;15.60;99.90;;;;;;5037888;28;20177;-82
2023/08/02 06:14:48;;;;;;;5.37;2.53;;;15.60;99.90;;;;;;5037889;28;20178;-82
2023/08/02 06:17:14;;;;;;;4.03;2.20;;;15.70;99.90;;;;;;5037494;28;20199;-82
2023/08/02 06:19:40;;;;;;;5.60;2.40;;;15.70;99.90;;;;;;5055521;28;20247;-82
2023/08/02 06:22:06;;;;;;;3.20;2.47;;;15.70;99.90;;;;;;5055398;28;20208;-83
2023/08/02 06:24:32;;;;;;;3.27;2.30;;;15.70;99.90;;;;;;5055363;28;20253;-82
2023/08/02 06:26:57;;;;;;;3.50;2.27;;;15.70;99.90;;;;;;5055470;28;20624;-82
2023/08/02 06:29:23;;;;;;;2.57;2.20;;;15.60;99.90;;;;;;5037629;28;20215;-82
2023/08/02 06:31:49;;;;;;;4.67;2.50;;;15.60;99.90;;;;;;5055562;28;20548;-82
2023/08/02 06:34:14;;;;;;;2.80;2.20;;;15.60;99.90;;;;;;5055571;28;20212;-82
2023/08/02 06:36:40;;;;;;;3.77;2.53;;;15.60;99.90;;;;;;5037626;28;20229;-82
2023/08/02 06:39:05;;;;;;;2.83;2.20;;;15.50;99.90;;;;;;5055263;28;20181;-83
2023/08/02 06:41:31;;;;;;;4.20;2.30;;;15.60;99.90;;;;;;5037012;28;20216;-82
2023/08/02 06:43:56;;;;;;;4.13;2.23;;;15.50;99.90;;;;;;5055062;28;20181;-82
2023/08/02 06:46:22;;;;;;;2.53;2.10;;;15.50;99.90;;;;;;5037148;28;20197;-82
2023/08/02 06:48:48;;;;;;;4.30;2.50;;;15.50;99.90;;;;;;5037589;28;20267;-84
2023/08/02 06:51:13;;;;;;;3.80;2.50;;;15.50;99.90;;;;;;5055436;28;20174;-82
2023/08/02 06:53:39;;;;;;;3.40;2.00;;;15.50;99.90;;;;;;5037281;28;20255;-82
2023/08/02 06:56:13;;;;;;;5.13;2.60;;;15.60;99.90;;;;;;5037761;28;20281;-82
2023/08/02 06:58:39;;;;;;;3.33;2.20;;;15.60;99.90;;;;;;5036786;28;20169;-82
2023/08/02 07:01:16;;;;;;;3.00;2.13;;;15.60;99.90;;;;;;5037124;28;20170;-82
2023/08/02 07:03:43;;;;;;;3.17;2.17;;;15.70;99.90;;;;;;5036678;28;20546;-82
2023/08/02 07:06:13;;;;;;;5.53;2.67;;;15.70;99.90;;;;;;5036687;28;20198;-82
2023/08/02 07:08:40;;;;;;;4.53;2.40;;;15.70;99.90;;;;;;5054838;28;20176;-82
2023/08/02 07:11:06;;;;;;;3.83;2.43;;;15.70;99.90;;;;;;5036051;28;20269;-82
2023/08/02 07:13:33;;;;;;;5.07;2.53;;;15.70;99.90;;;;;;5037437;28;20177;-82
2023/08/02 07:15:59;;;;;;;3.63;2.50;;;15.70;99.90;;;;;;5036798;28;20251;-82
2023/08/02 07:18:25;;;;;;;3.03;2.20;;;15.70;99.90;;;;;;5054667;28;20184;-84
2023/08/02 07:20:51;;;;;;;2.73;2.27;;;15.60;99.90;;;;;;5036436;28;20190;-83
2023/08/02 07:23:16;;;;;;;5.37;2.80;;;15.60;99.90;;;;;;5054131;28;20201;-82
2023/08/02 07:25:42;;;;;;;3.73;2.30;;;15.60;99.90;;;;;;5036150;28;20709;-82
2023/08/02 07:28:08;;;;;;;6.27;2.53;;;15.40;99.90;;;;;;5036510;28;20641;-82
2023/08/02 07:30:33;;;;;;;3.97;2.47;;;15.30;99.90;;;;;;5036368;28;20307;-84
2023/08/02 07:32:59;;;;;;;4.17;2.43;;;15.30;99.90;;;;;;5054095;28;20193;-82
2023/08/02 07:35:24;;;;;;;3.27;2.40;;;15.40;99.90;;;;;;5053995;28;20170;-82
2023/08/02 07:37:50;;;;;;;4.23;2.47;;;15.40;99.90;;;;;;5036239;28;20188;-82
2023/08/02 07:40:16;;;;;;;3.57;2.50;;;15.40;99.90;;;;;;5036562;28;20178;-82
2023/08/02 07:42:41;;;;;;;3.60;2.60;;;15.40;99.90;;;;;;5036656;28;20216;-81
2023/08/02 07:45:09;;;;;;;2.80;2.37;;;15.30;99.90;;;;;;5036297;28;20227;-82
2023/08/02 07:47:35;;;;;;;4.60;2.17;;;15.30;99.90;;;;;;5054166;28;20174;-82
2023/08/02 07:50:01;;;;;;;3.57;2.63;;;15.30;99.90;;;;;;5054309;28;20177;-82
2023/08/02 07:52:27;;;;;;;3.83;2.13;;;15.40;99.90;;;;;;5054317;28;20212;-82
2023/08/02 07:54:53;;;;;;;3.30;2.20;;;15.50;99.90;;;;;;5036036;28;20193;-83
2023/08/02 07:57:31;;;;;;;4.20;2.20;;;15.50;99.90;;;;;;5035853;28;20197;-82
2023/08/02 07:59:58;;;;;;;3.07;2.23;;;15.50;99.90;;;;;;5053810;28;20278;-82
2023/08/02 08:02:25;;;;;;;3.00;2.30;;;15.60;99.90;;;;;;5036323;28;20201;-82
2023/08/02 08:04:51;;;;;;;3.37;2.40;;;15.70;99.90;;;;;;5053755;28;20181;-82
2023/08/02 08:07:17;;;;;;;3.30;2.00;;;15.60;99.90;;;;;;5053533;28;20181;-83
2023/08/02 08:09:42;;;;;;;3.83;2.30;;;15.70;99.90;;;;;;5035919;28;20557;-82
2023/08/02 08:12:08;;;;;;;3.27;2.20;;;15.80;99.90;;;;;;5053765;28;20182;-82
2023/08/02 08:14:34;;;;;;;4.37;2.20;;;15.80;99.90;;;;;;5035816;28;20241;-82
2023/08/02 08:17:00;;;;;;;3.63;2.40;;;15.90;99.90;;;;;;5053554;28;20229;-82
2023/08/02 08:19:27;;;;;;;4.30;2.40;;;15.80;99.90;;;;;;5054007;28;20187;-83
2023/08/02 08:21:53;;;;;;;5.07;2.53;;;15.80;99.90;;;;;;5038291;28;20194;-83
2023/08/02 08:24:18;;;;;;;3.97;2.20;;;15.80;99.90;;;;;;5040531;28;20181;-82
2023/08/02 08:26:44;;;;;;;5.27;2.50;;;15.70;99.90;;;;;;5039932;28;20189;-82
2023/08/02 08:29:10;;;;;;;4.77;2.30;;;15.70;99.90;;;;;;5058246;28;20172;-82
2023/08/02 08:31:36;;;;;;;3.97;2.30;;;15.60;99.90;;;;;;5039627;28;20193;-82
2023/08/02 08:34:02;;;;;;;2.73;2.10;;;15.60;99.90;;;;;;5039632;28;20174;-82
2023/08/02 08:36:29;;;;;;;3.73;2.20;;;15.60;99.90;;;;;;5039617;28;20683;-82
2023/08/02 08:38:55;;;;;;;2.70;2.00;;;15.50;99.90;;;;;;5058056;28;20248;-83
2023/08/02 08:41:21;;;;;;;4.10;2.17;;;15.50;99.90;;;;;;5057272;28;20173;-82
2023/08/02 08:43:47;;;;;;;2.83;2.40;;;15.50;99.90;;;;;;5039939;28;20227;-82
2023/08/02 08:46:13;;;;;;;2.40;2.10;;;15.50;99.90;;;;;;5039521;28;20856;-84
2023/08/02 08:48:39;;;;;;;3.20;2.20;;;15.60;99.90;;;;;;5039124;28;20170;-82
2023/08/02 08:51:05;;;;;;;2.27;1.83;;;15.60;99.90;;;;;;5057462;28;20713;-82
2023/08/02 08:53:36;;;;;;;2.83;2.07;;;15.60;99.90;;;;;;5057311;28;20299;-82
2023/08/02 08:56:03;;;;;;;3.73;2.20;;;15.60;99.90;;;;;;5039293;28;20189;-82
2023/08/02 08:58:33;;;;;;;2.73;2.10;;;15.70;99.90;;;;;;5057048;28;20220;-82
2023/08/02 09:00:58;;;;;;;2.03;1.90;;;15.70;99.90;;;;;;5057403;28;20173;-82
2023/08/02 09:03:25;;;;;;;4.07;1.97;;;15.70;99.90;;;;;;5039025;28;20274;-82
2023/08/02 09:05:51;;;;;;;2.37;1.83;;;15.70;99.90;;;;;;5038878;28;20718;-82
2023/08/02 09:08:17;;;;;;;2.47;2.00;;;15.80;99.90;;;;;;5039301;28;20192;-82
2023/08/02 09:10:43;;;;;;;1.80;1.70;;;15.80;99.90;;;;;;5039019;28;20653;-82
2023/08/02 09:13:25;;;;;;;2.57;1.77;;;15.90;99.90;;;;;;5038995;28;20263;-82
2023/08/02 09:16:03;;;;;;;1.90;1.60;;;16.00;99.90;;;;;;5039695;28;20201;-82
2023/08/02 09:18:42;;;;;;;1.40;1.30;;;16.00;99.90;;;;;;5056438;28;20312;-82
2023/08/02 09:21:09;;;;;;;1.70;1.43;;;16.00;99.90;;;;;;5038709;28;20166;-82
2023/08/02 09:23:34;;;;;;;1.87;1.10;;;16.10;99.90;;;;;;5056790;28;20196;-82
2023/08/02 09:26:10;;;;;;;1.67;1.20;;;16.10;99.90;;;;;;5039012;28;20276;-82
2023/08/02 09:28:36;;;;;;;1.03;0.90;;;16.10;99.90;;;;;;5056504;28;20322;-82
2023/08/02 09:31:16;;;;;;;1.43;1.30;;;16.20;99.90;;;;;;5038607;28;20661;-82
2023/08/02 09:33:53;;;;;;;1.30;1.00;;;16.20;99.90;;;;;;5055953;28;20354;-82
2023/08/02 09:36:27;;;;;;;1.00;0.90;;;16.20;99.90;;;;;;5038923;28;20255;-82
2023/08/02 09:38:56;;;;;;;1.10;1.00;;;16.20;99.90;;;;;;5039185;28;20166;-82
2023/08/02 09:41:23;;;;;;;1.00;0.90;;;16.30;99.90;;;;;;5056310;28;20166;-82
2023/08/02 09:43:49;;;;;;;1.23;0.90;;;16.20;99.90;;;;;;5038605;28;20252;-82
2023/08/02 09:46:34;;;;;;;1.00;1.00;;;16.20;99.90;;;;;;5056956;28;20251;-82
2023/08/02 09:49:01;;;;;;;0.87;0.87;;;16.30;99.90;;;;;;5038606;28;20228;-82
2023/08/02 09:51:43;;;;;;;1.10;0.90;;;16.30;99.90;;;;;;5056485;28;20195;-82
2023/08/02 09:54:10;;;;;;;0.87;0.80;;;16.30;99.90;;;;;;5056825;28;20184;-83
2023/08/02 09:56:38;;;;;;;0.60;0.60;;;16.30;99.90;;;;;;5056866;28;20207;-82
2023/08/02 09:59:05;;;;;;;0.87;0.70;;;16.30;99.90;;;;;;5057172;28;20679;-83
2023/08/02 10:01:32;;;;;;;0.60;0.40;;;16.20;99.90;;;;;;5038521;28;20251;-82
2023/08/02 10:04:03;;;;;;;0.70;0.60;;;16.20;99.90;;;;;;5039417;28;20166;-83
2023/08/02 10:06:33;;;;;;;0.70;0.70;;;16.20;99.90;;;;;;5039465;28;20280;-83
2023/08/02 10:09:04;;;;;;;0.60;0.60;;;16.20;99.90;;;;;;5039216;28;20204;-83
2023/08/02 10:11:33;;;;;;;1.50;0.43;;;16.20;99.90;;;;;;5039691;28;20208;-82
2023/08/02 10:14:00;;;;;;;0.50;0.50;;;16.20;99.90;;;;;;5057258;28;20170;-83
2023/08/02 10:16:26;;;;;;;0.60;0.50;;;16.30;99.90;;;;;;5038625;28;20197;-83
2023/08/02 10:18:53;;;;;;;0.67;0.60;;;16.20;99.90;;;;;;5038778;28;20194;-83
2023/08/02 10:21:20;;;;;;;0.40;0.40;;;16.20;99.90;;;;;;5038474;28;20227;-83
2023/08/02 10:23:47;;;;;;;0.50;0.50;;;16.30;99.90;;;;;;5056877;28;20166;-82
2023/08/02 10:26:13;;;;;;;0.40;0.40;;;16.40;99.90;;;;;;5038404;28;20190;-84
2023/08/02 10:28:40;;;;;;;0.43;0.43;;;16.40;99.90;;;;;;5038663;28;20189;-83
2023/08/02 10:31:08;;;;;;;0.40;0.40;;;16.50;99.90;;;;;;5056607;28;20165;-83
2023/08/02 10:33:33;;;;;;;0.30;0.30;;;16.50;99.90;;;;;;5056290;28;20182;-83
2023/08/02 10:36:07;;;;;;;0.30;0.30;;;16.60;99.90;;;;;;5062093;23;20266;-82
2023/08/02 10:38:38;;;;;;;0.30;0.30;;;16.60;99.90;;;;;;5058109;28;20173;-82
2023/08/02 10:41:08;;;;;;;0.30;0.30;;;16.60;99.90;;;;;;5053672;28;20276;-81
2023/08/02 10:43:54;;;;;;;0.60;0.50;;;16.60;99.90;;;;;;5054192;28;20182;-82
2023/08/02 10:46:27;;;;;;;0.87;0.23;;;16.60;99.90;;;;;;5039135;28;20221;-84
2023/08/02 10:49:13;;;;;;;0.40;0.40;;;16.70;99.90;;;;;;5053638;28;20185;-82
2023/08/02 10:51:38;;;;;;;0.30;0.30;;;16.70;99.90;;;;;;5052838;28;20649;-82
2023/08/02 10:54:25;;;;;;;0.33;0.33;;;16.60;99.90;;;;;;5035918;28;20209;-82
2023/08/02 10:56:51;;;;;;;1.17;0.40;;;16.60;99.90;;;;;;5053612;28;20586;-82
2023/08/02 10:59:23;;;;;;;0.30;0.30;;;16.50;99.90;;;;;;5053328;28;20661;-82
2023/08/02 11:01:54;;;;;;;0.30;0.30;;;16.50;99.90;;;;;;5053260;28;20201;-85
2023/08/02 11:04:20;;;;;;;0.20;0.20;;;16.50;99.90;;;;;;5035267;28;20177;-86
2023/08/02 11:06:45;;;;;;;0.90;0.37;;;16.60;99.90;;;;;;5052868;28;20193;-84
2023/08/02 11:09:11;;;;;;;0.40;0.40;;;16.70;99.90;;;;;;5053236;28;20177;-85
2023/08/02 11:11:38;;;;;;;0.37;0.20;;;16.70;99.90;;;;;;5035104;28;20601;-82
2023/08/02 11:14:03;;;;;;;0.43;0.23;;;16.70;99.90;;;;;;5035118;28;20245;-82
2023/08/02 11:16:29;;;;;;;0.27;0.27;;;16.80;99.90;;;;;;5035169;28;20237;-82
2023/08/02 11:18:55;;;;;;;0.20;0.20;;;16.80;99.90;;;;;;5052616;28;20261;-82
2023/08/02 11:21:23;;;;;;;0.20;0.20;;;16.80;99.90;;;;;;5034972;28;20185;-82
2023/08/02 11:23:52;;;;;;;0.30;0.30;;;16.80;99.90;;;;;;5035135;28;20177;-83
2023/08/02 11:26:19;;;;;;;0.20;0.20;;;16.90;99.90;;;;;;5053003;28;20198;-82
2023/08/02 11:28:52;;;;;;;0.10;0.10;;;16.90;99.90;;;;;;5035108;28;20174;-82
2023/08/02 11:31:18;;;;;;;0.40;0.40;;;16.90;99.90;;;;;;5034881;28;20170;-83
2023/08/02 11:33:44;;;;;;;0.20;0.20;;;17.10;99.90;;;;;;5035048;28;20203;-83
2023/08/02 11:36:10;;;;;;;0.30;0.30;;;17.10;99.90;;;;;;5034682;28;20249;-83
2023/08/02 11:38:37;;;;;;;0.27;0.27;;;17.20;99.90;;;;;;5034855;28;20173;-83
2023/08/02 11:41:14;;;;;;;0.20;0.20;;;17.30;99.90;;;;;;5052270;28;20249;-83
2023/08/02 11:43:39;;;;;;;0.23;0.23;;;17.30;99.90;;;;;;5034578;28;20181;-83
2023/08/02 11:46:25;;;;;;;0.50;0.40;;;17.30;99.90;;;;;;5052147;28;20196;-83
2023/08/02 11:48:52;;;;;;;0.30;0.30;;;17.30;99.90;;;;;;5034506;28;20242;-83
2023/08/02 11:51:21;;;;;;;0.40;0.40;;;17.30;99.90;;;;;;5034229;28;20640;-83
2023/08/02 11:53:57;;;;;;;0.30;0.30;;;17.30;99.90;;;;;;5052332;28;20178;-83
2023/08/02 11:56:23;;;;;;;0.40;0.40;;;17.30;99.90;;;;;;5034083;28;20194;-83
2023/08/02 11:58:50;;;;;;;0.33;0.30;;;17.40;99.90;;;;;;5034387;28;20173;-83
2023/08/02 12:01:16;;;;;;;0.40;0.30;;;17.30;99.90;;;;;;5034198;28;20180;-83
2023/08/02 12:04:03;;;;;;;0.30;0.30;;;17.40;99.90;;;;;;5052379;28;20173;-83
2023/08/02 12:06:46;;;;;;;0.33;0.33;;;17.40;99.90;;;;;;5052175;28;20276;-83
2023/08/02 12:09:12;;;;;;;0.30;0.30;;;17.50;99.90;;;;;;5052074;28;20177;-82
2023/08/02 12:11:38;;;;;;;0.30;0.30;;;17.50;99.90;;;;;;5052198;28;20177;-83
2023/08/02 12:14:06;;;;;;;0.37;0.37;;;17.60;99.90;;;;;;5034400;28;20180;-82
2023/08/02 12:16:42;;;;;;;0.20;0.20;;;17.60;99.90;;;;;;5034452;28;20205;-83
2023/08/02 12:19:09;;;;;;;0.30;0.30;;;17.60;99.90;;;;;;5052009;28;20539;-83
2023/08/02 12:21:36;;;;;;;0.20;0.20;;;17.60;99.90;;;;;;5034049;28;20202;-83
2023/08/02 12:24:16;;;;;;;0.20;0.20;;;17.60;99.90;;;;;;5034480;28;20177;-83
2023/08/02 12:26:41;;;;;;;0.63;0.50;;;17.50;99.90;;;;;;5034080;28;20197;-82
2023/08/02 12:29:07;;;;;;;0.30;0.30;;;17.50;99.90;;;;;;5052030;28;20166;-83
2023/08/02 12:31:43;;;;;;;0.20;0.20;;;17.40;99.90;;;;;;5051799;28;20192;-82
2023/08/02 12:34:09;;;;;;;0.20;0.20;;;17.40;99.90;;;;;;5034507;28;20190;-82
2023/08/02 12:36:35;;;;;;;0.40;0.40;;;17.40;99.90;;;;;;5034317;28;20216;-82
2023/08/02 12:39:01;;;;;;;0.30;0.30;;;17.30;99.90;;;;;;5034121;28;20185;-82
2023/08/02 12:41:28;;;;;;;0.20;0.20;;;17.20;99.90;;;;;;5051624;28;20264;-82
2023/08/02 12:43:54;;;;;;;0.20;0.20;;;17.20;99.90;;;;;;5051729;28;20181;-83
2023/08/02 12:46:20;;;;;;;0.43;0.27;;;17.20;99.90;;;;;;5052117;28;20273;-82
2023/08/02 12:48:46;;;;;;;0.30;0.30;;;17.20;99.90;;;;;;5051863;28;20170;-82
2023/08/02 12:51:13;;;;;;;0.20;0.20;;;17.20;99.90;;;;;;5034210;28;20174;-82